createdAt,value
2023-09-16T00:00:23.702Z,78.69
2023-09-16T00:01:25.829Z,78.13
2023-09-16T00:02:27.912Z,78.33
2023-09-16T00:03:30.028Z,78.63
2023-09-16T00:04:32.107Z,78.20
2023-09-16T00:05:35.524Z,78.60
2023-09-16T00:06:37.605Z,78.67
2023-09-16T00:07:39.630Z,78.62
2023-09-16T00:08:43.512Z,79.04
2023-09-16T00:09:45.559Z,78.11
2023-09-16T00:10:49.043Z,78.07
2023-09-16T00:11:51.270Z,78.75
2023-09-16T00:12:53.334Z,78.46
2023-09-16T00:13:55.936Z,78.14
2023-09-16T00:14:57.965Z,78.15
2023-09-16T00:16:00.044Z,78.03
2023-09-16T00:17:05.279Z,78.24
2023-09-16T00:18:07.442Z,78.48
2023-09-16T00:19:11.027Z,78.72
2023-09-16T00:20:16.400Z,77.96
2023-09-16T00:21:19.118Z,78.79
2023-09-16T00:22:22.743Z,78.29
2023-09-16T00:23:24.732Z,77.89
2023-09-16T00:24:26.759Z,77.81
2023-09-16T00:25:28.797Z,78.37
2023-09-16T00:26:30.768Z,78.14
2023-09-16T00:27:32.775Z,77.72
2023-09-16T00:28:36.668Z,77.86
2023-09-16T00:29:38.694Z,78.27
2023-09-16T00:30:43.930Z,78.43
2023-09-16T00:31:46.216Z,77.28
2023-09-16T00:32:48.295Z,78.05
2023-09-16T00:33:50.702Z,77.58
2023-09-16T00:34:52.777Z,78.19
2023-09-16T00:35:54.807Z,77.66
2023-09-16T00:36:56.852Z,77.72
2023-09-16T00:37:58.875Z,77.91
2023-09-16T00:39:00.893Z,77.56
2023-09-16T00:40:03.265Z,77.68
2023-09-16T00:41:05.300Z,78.01
2023-09-16T00:42:07.318Z,77.87
2023-09-16T00:43:09.318Z,77.72
2023-09-16T00:44:11.835Z,77.23
2023-09-16T00:45:15.490Z,76.86
2023-09-16T00:46:17.810Z,77.12
2023-09-16T00:47:19.853Z,77.34
2023-09-16T00:48:21.867Z,77.91
2023-09-16T00:49:23.892Z,77.86
2023-09-16T00:50:25.895Z,77.59
2023-09-16T00:51:28.024Z,77.24
2023-09-16T00:52:30.682Z,77.51
2023-09-16T00:53:32.688Z,78.28
2023-09-16T00:54:35.048Z,78.02
2023-09-16T00:55:37.034Z,77.00
2023-09-16T00:56:39.054Z,76.92
2023-09-16T00:57:42.004Z,77.45
2023-09-16T00:58:44.028Z,77.13
2023-09-16T00:59:46.015Z,77.12
2023-09-16T01:00:48.093Z,77.73
2023-09-16T01:01:53.318Z,77.35
2023-09-16T01:02:55.658Z,77.15
2023-09-16T01:03:57.736Z,77.03
2023-09-16T01:04:59.892Z,77.57
2023-09-16T01:06:02.020Z,77.17
2023-09-16T01:07:04.220Z,77.82
2023-09-16T01:08:06.350Z,77.20
2023-09-16T01:09:09.890Z,77.49
2023-09-16T01:10:11.946Z,77.42
2023-09-16T01:11:14.022Z,78.38
2023-09-16T01:12:16.026Z,78.71
2023-09-16T01:13:18.035Z,78.18
2023-09-16T01:14:20.055Z,78.73
2023-09-16T01:15:23.780Z,78.24
2023-09-16T01:16:37.390Z,77.67
2023-09-16T01:17:43.811Z,77.46
2023-09-16T01:18:49.023Z,77.07
2023-09-16T01:19:58.349Z,77.12
2023-09-16T01:21:00.375Z,77.28
2023-09-16T01:22:02.514Z,77.08
2023-09-16T01:23:04.589Z,77.25
2023-09-16T01:24:24.906Z,77.80
2023-09-16T01:25:27.987Z,77.54
2023-09-16T01:26:29.973Z,77.72
2023-09-16T01:27:31.958Z,77.92
2023-09-16T01:28:33.994Z,76.97
2023-09-16T01:29:36.052Z,76.69
2023-09-16T01:30:39.635Z,77.35
2023-09-16T01:31:42.387Z,77.67
2023-09-16T01:32:48.423Z,79.43
2023-09-16T01:33:50.652Z,80.85
2023-09-16T01:34:54.208Z,81.21
2023-09-16T01:36:00.150Z,82.67
2023-09-16T01:37:02.215Z,83.29
2023-09-16T01:38:04.728Z,83.45
2023-09-16T01:39:06.803Z,83.87
2023-09-16T01:40:09.335Z,84.25
2023-09-16T01:41:11.399Z,84.29
2023-09-16T01:42:13.407Z,84.66
2023-09-16T01:43:16.478Z,85.15
2023-09-16T01:44:18.464Z,85.09
2023-09-16T01:45:20.436Z,86.69
2023-09-16T01:46:22.458Z,86.23
2023-09-16T01:47:24.562Z,86.19
2023-09-16T01:48:36.586Z,87.04
2023-09-16T01:49:42.723Z,87.18
2023-09-16T01:50:46.136Z,86.86
2023-09-16T01:51:48.181Z,87.43
2023-09-16T01:52:50.209Z,87.01
2023-09-16T01:53:52.234Z,87.26
2023-09-16T01:54:54.305Z,86.67
2023-09-16T01:55:56.319Z,86.91
2023-09-16T01:56:58.528Z,87.93
2023-09-16T01:58:00.544Z,87.80
2023-09-16T01:59:02.899Z,87.71
2023-09-16T02:00:06.629Z,87.37
2023-09-16T02:01:09.697Z,87.51
2023-09-16T02:02:12.537Z,88.42
2023-09-16T02:03:14.548Z,87.61
2023-09-16T02:04:16.578Z,88.48
2023-09-16T02:05:18.588Z,88.49
2023-09-16T02:06:20.605Z,88.31
2023-09-16T02:07:22.623Z,88.41
2023-09-16T02:08:24.645Z,88.39
2023-09-16T02:09:26.623Z,88.73
2023-09-16T02:10:29.504Z,87.85
2023-09-16T02:11:32.335Z,88.67
2023-09-16T02:12:34.767Z,88.83
2023-09-16T02:13:37.223Z,88.35
2023-09-16T02:14:40.207Z,88.39
2023-09-16T02:15:47.085Z,88.25
2023-09-16T02:16:49.197Z,87.25
2023-09-16T02:17:51.446Z,87.42
2023-09-16T02:18:53.499Z,88.35
2023-09-16T02:19:55.516Z,88.44
2023-09-16T02:20:57.482Z,87.58
2023-09-16T02:21:59.507Z,87.03
2023-09-16T02:23:03.004Z,87.81
2023-09-16T02:24:05.627Z,87.67
2023-09-16T02:25:07.902Z,87.18
2023-09-16T02:26:09.911Z,87.64
2023-09-16T02:27:13.539Z,87.50
2023-09-16T02:28:15.819Z,88.25
2023-09-16T02:29:17.840Z,88.23
2023-09-16T02:30:19.812Z,87.42
2023-09-16T02:31:21.871Z,88.32
2023-09-16T02:32:23.960Z,87.25
2023-09-16T02:33:26.086Z,87.20
2023-09-16T02:34:28.434Z,88.11
2023-09-16T02:35:30.411Z,88.37
2023-09-16T02:36:32.411Z,88.25
2023-09-16T02:37:34.409Z,88.08
2023-09-16T02:38:36.372Z,87.64
2023-09-16T02:39:38.384Z,87.89
2023-09-16T02:40:43.426Z,87.37
2023-09-16T02:41:45.399Z,88.86
2023-09-16T02:42:47.412Z,88.14
2023-09-16T02:43:49.480Z,88.17
2023-09-16T02:44:52.122Z,88.55
2023-09-16T02:45:57.107Z,88.71
2023-09-16T02:46:59.141Z,88.30
2023-09-16T02:48:01.158Z,87.97
2023-09-16T02:49:04.423Z,88.52
2023-09-16T02:50:08.624Z,88.06
2023-09-16T02:51:10.982Z,88.23
2023-09-16T02:52:13.055Z,87.95
2023-09-16T02:53:15.080Z,88.63
2023-09-16T02:54:17.438Z,88.07
2023-09-16T02:55:19.454Z,87.74
2023-09-16T02:56:21.509Z,88.69
2023-09-16T02:57:23.485Z,88.02
2023-09-16T02:58:25.469Z,88.06
2023-09-16T02:59:27.434Z,87.96
2023-09-16T03:00:29.429Z,87.64
2023-09-16T03:01:31.454Z,87.52
2023-09-16T03:02:33.815Z,87.96
2023-09-16T03:03:36.488Z,87.46
2023-09-16T03:04:38.546Z,87.58
2023-09-16T03:05:46.672Z,87.87
2023-09-16T03:06:49.525Z,87.47
2023-09-16T03:07:51.530Z,87.87
2023-09-16T03:08:53.963Z,87.04
2023-09-16T03:09:56.233Z,87.13
2023-09-16T03:11:04.880Z,87.44
2023-09-16T03:12:06.919Z,87.42
2023-09-16T03:13:08.967Z,87.74
2023-09-16T03:14:11.011Z,88.31
2023-09-16T03:15:13.009Z,88.17
2023-09-16T03:16:22.481Z,87.49
2023-09-16T03:17:24.561Z,88.04
2023-09-16T03:18:26.597Z,88.16
2023-09-16T03:19:29.668Z,87.10
2023-09-16T03:20:31.717Z,87.43
2023-09-16T03:21:33.761Z,87.79
2023-09-16T03:22:35.810Z,88.13
2023-09-16T03:23:37.848Z,87.83
2023-09-16T03:24:40.186Z,87.61
2023-09-16T03:25:42.190Z,87.76
2023-09-16T03:26:44.240Z,88.38
2023-09-16T03:27:46.344Z,87.65
2023-09-16T03:28:48.701Z,88.44
2023-09-16T03:29:51.008Z,87.81
2023-09-16T03:30:53.107Z,88.21
2023-09-16T03:31:55.353Z,88.21
2023-09-16T03:32:57.501Z,88.47
2023-09-16T03:33:59.644Z,88.54
2023-09-16T03:35:01.704Z,89.15
2023-09-16T03:36:03.932Z,88.81
2023-09-16T03:37:05.940Z,89.59
2023-09-16T03:38:07.954Z,88.60
2023-09-16T03:39:09.972Z,89.14
2023-09-16T03:40:11.978Z,89.17
2023-09-16T03:41:14.373Z,89.27
2023-09-16T03:42:16.365Z,89.39
2023-09-16T03:43:19.350Z,88.83
2023-09-16T03:44:21.356Z,89.22
2023-09-16T03:45:29.696Z,89.37
2023-09-16T03:46:33.259Z,89.00
2023-09-16T03:47:35.388Z,89.32
2023-09-16T03:48:37.468Z,88.70
2023-09-16T03:49:39.502Z,88.88
2023-09-16T03:50:41.510Z,89.27
2023-09-16T03:51:43.517Z,88.87
2023-09-16T03:52:45.493Z,89.26
2023-09-16T03:53:48.464Z,89.04
2023-09-16T03:54:50.484Z,89.23
2023-09-16T03:55:55.440Z,89.31
2023-09-16T03:56:57.410Z,89.35
2023-09-16T03:58:01.646Z,88.68
2023-09-16T03:59:03.890Z,89.08
2023-09-16T04:00:07.895Z,88.77
2023-09-16T04:01:09.885Z,88.51
2023-09-16T04:02:11.901Z,89.37
2023-09-16T04:03:13.913Z,89.15
2023-09-16T04:04:15.978Z,89.80
2023-09-16T04:05:18.028Z,88.89
2023-09-16T04:06:20.027Z,89.33
2023-09-16T04:07:23.506Z,89.61
2023-09-16T04:08:30.687Z,89.96
2023-09-16T04:09:40.042Z,88.98
2023-09-16T04:10:42.075Z,89.50
2023-09-16T04:11:44.082Z,89.18
2023-09-16T04:12:46.699Z,88.73
2023-09-16T04:13:50.147Z,89.01
2023-09-16T04:14:52.389Z,88.87
2023-09-16T04:15:55.821Z,89.17
2023-09-16T04:16:57.884Z,89.90
2023-09-16T04:17:59.958Z,89.81
2023-09-16T04:19:02.032Z,89.54
2023-09-16T04:20:07.196Z,89.68
2023-09-16T04:21:09.284Z,89.70
2023-09-16T04:22:11.307Z,90.36
2023-09-16T04:23:13.375Z,90.58
2023-09-16T04:24:15.360Z,89.95
2023-09-16T04:25:17.382Z,90.13
2023-09-16T04:26:21.655Z,89.96
2023-09-16T04:27:23.733Z,89.93
2023-09-16T04:28:25.969Z,90.73
2023-09-16T04:29:28.100Z,89.76
2023-09-16T04:30:30.132Z,90.23
2023-09-16T04:31:32.162Z,90.50
2023-09-16T04:32:34.237Z,89.91
2023-09-16T04:33:36.270Z,90.92
2023-09-16T04:34:38.290Z,90.40
2023-09-16T04:35:50.537Z,90.19
2023-09-16T04:36:56.002Z,89.98
2023-09-16T04:37:58.029Z,89.44
2023-09-16T04:39:00.040Z,90.25
2023-09-16T04:40:09.119Z,89.59
2023-09-16T04:41:11.185Z,89.86
2023-09-16T04:42:13.164Z,89.60
2023-09-16T04:43:15.381Z,89.86
2023-09-16T04:44:17.635Z,89.81
2023-09-16T04:45:19.628Z,89.47
2023-09-16T04:46:21.744Z,89.86
2023-09-16T04:47:24.277Z,89.91
2023-09-16T04:48:26.413Z,90.29
2023-09-16T04:49:28.429Z,89.70
2023-09-16T04:50:30.761Z,89.58
2023-09-16T04:51:34.969Z,89.43
2023-09-16T04:52:37.235Z,90.37
2023-09-16T04:53:39.213Z,90.43
2023-09-16T04:54:42.197Z,90.29
2023-09-16T04:55:44.301Z,89.83
2023-09-16T04:56:46.265Z,90.24
2023-09-16T04:57:48.270Z,90.17
2023-09-16T04:58:51.342Z,90.30
2023-09-16T04:59:53.568Z,89.71
2023-09-16T05:00:55.595Z,90.29
2023-09-16T05:02:00.911Z,90.31
2023-09-16T05:03:03.084Z,89.89
2023-09-16T05:04:05.217Z,89.83
2023-09-16T05:05:07.571Z,89.95
2023-09-16T05:06:09.614Z,90.01
2023-09-16T05:07:11.613Z,89.43
2023-09-16T05:08:13.701Z,89.86
2023-09-16T05:09:15.697Z,89.56
2023-09-16T05:10:17.729Z,88.94
2023-09-16T05:11:19.733Z,89.14
2023-09-16T05:12:21.744Z,89.92
2023-09-16T05:13:23.763Z,89.92
2023-09-16T05:14:25.876Z,89.72
2023-09-16T05:15:27.966Z,90.28
2023-09-16T05:16:30.112Z,89.65
2023-09-16T05:17:32.165Z,89.42
2023-09-16T05:18:34.147Z,90.12
2023-09-16T05:19:36.164Z,89.93
2023-09-16T05:20:38.198Z,89.46
2023-09-16T05:21:40.246Z,90.09
2023-09-16T05:22:42.533Z,89.54
2023-09-16T05:23:44.576Z,89.31
2023-09-16T05:24:46.675Z,89.69
2023-09-16T05:25:49.577Z,89.51
2023-09-16T05:26:51.557Z,90.18
2023-09-16T05:27:53.591Z,90.00
2023-09-16T05:28:57.802Z,89.79
2023-09-16T05:29:59.799Z,89.64
2023-09-16T05:31:03.952Z,89.70
2023-09-16T05:32:06.218Z,89.33
2023-09-16T05:33:08.413Z,89.18
2023-09-16T05:34:10.441Z,89.14
2023-09-16T05:35:12.454Z,89.29
2023-09-16T05:36:14.438Z,89.80
2023-09-16T05:37:16.398Z,89.00
2023-09-16T05:38:18.380Z,89.45
2023-09-16T05:39:20.343Z,88.25
2023-09-16T05:40:22.342Z,88.45
2023-09-16T05:41:24.344Z,88.27
2023-09-16T05:42:26.335Z,88.60
2023-09-16T05:43:28.321Z,87.43
2023-09-16T05:44:30.289Z,87.99
2023-09-16T05:45:32.646Z,87.52
2023-09-16T05:46:34.782Z,87.41
2023-09-16T05:47:36.859Z,87.56
2023-09-16T05:48:38.894Z,85.61
2023-09-16T05:49:40.869Z,86.99
2023-09-16T05:50:42.868Z,87.23
2023-09-16T05:51:45.066Z,87.07
2023-09-16T05:52:47.077Z,86.91
2023-09-16T05:53:49.074Z,86.86
2023-09-16T05:54:51.069Z,86.19
2023-09-16T05:55:54.347Z,87.08
2023-09-16T05:56:56.366Z,87.24
2023-09-16T05:58:01.782Z,87.18
2023-09-16T05:59:04.591Z,87.09
2023-09-16T06:00:07.804Z,86.88
2023-09-16T06:01:09.988Z,86.66
2023-09-16T06:02:12.133Z,86.80
2023-09-16T06:03:14.142Z,86.53
2023-09-16T06:04:16.217Z,87.51
2023-09-16T06:05:18.271Z,86.79
2023-09-16T06:06:20.919Z,86.33
2023-09-16T06:07:26.964Z,85.82
2023-09-16T06:08:29.064Z,84.90
2023-09-16T06:09:31.063Z,85.10
2023-09-16T06:10:33.097Z,84.39
2023-09-16T06:11:35.072Z,84.49
2023-09-16T06:12:37.099Z,85.72
2023-09-16T06:13:39.201Z,85.66
2023-09-16T06:14:41.203Z,85.20
2023-09-16T06:15:45.101Z,84.38
2023-09-16T06:16:47.218Z,84.89
2023-09-16T06:17:49.331Z,84.96
2023-09-16T06:18:51.603Z,84.93
2023-09-16T06:19:55.678Z,86.03
2023-09-16T06:20:57.675Z,85.79
2023-09-16T06:21:59.735Z,85.66
2023-09-16T06:23:04.413Z,85.87
2023-09-16T06:24:06.519Z,84.44
2023-09-16T06:25:08.768Z,85.62
2023-09-16T06:26:11.677Z,83.80
2023-09-16T06:27:15.404Z,82.72
2023-09-16T06:28:17.426Z,83.68
2023-09-16T06:29:19.436Z,84.73
2023-09-16T06:30:21.438Z,84.85
2023-09-16T06:31:23.509Z,84.28
2023-09-16T06:32:25.564Z,84.84
2023-09-16T06:33:27.554Z,84.49
2023-09-16T06:34:29.559Z,83.78
2023-09-16T06:35:31.549Z,84.02
2023-09-16T06:36:33.604Z,82.41
2023-09-16T06:37:35.665Z,82.35
2023-09-16T06:38:37.637Z,82.83
2023-09-16T06:39:41.371Z,82.35
2023-09-16T06:40:43.407Z,82.35
2023-09-16T06:41:45.365Z,82.30
2023-09-16T06:42:50.212Z,82.66
2023-09-16T06:43:52.305Z,82.46
2023-09-16T06:44:56.200Z,82.11
2023-09-16T06:45:58.268Z,81.66
2023-09-16T06:47:00.347Z,81.71
2023-09-16T06:48:02.435Z,82.63
2023-09-16T06:49:04.480Z,83.25
2023-09-16T06:50:09.616Z,83.58
2023-09-16T06:51:11.678Z,82.42
2023-09-16T06:52:13.796Z,81.88
2023-09-16T06:53:20.816Z,82.67
2023-09-16T06:54:22.828Z,82.63
2023-09-16T06:55:24.872Z,82.04
2023-09-16T06:56:26.856Z,82.64
2023-09-16T06:57:28.858Z,82.41
2023-09-16T06:58:31.145Z,82.89
2023-09-16T06:59:33.151Z,82.88
2023-09-16T07:00:36.542Z,83.14
2023-09-16T07:01:38.649Z,83.23
2023-09-16T07:02:40.744Z,83.29
2023-09-16T07:03:42.906Z,84.11
2023-09-16T07:04:46.776Z,83.88
2023-09-16T07:05:49.377Z,84.27
2023-09-16T07:06:51.416Z,82.42
2023-09-16T07:07:54.061Z,82.65
2023-09-16T07:08:56.072Z,83.12
2023-09-16T07:09:58.126Z,83.92
2023-09-16T07:11:00.159Z,83.12
2023-09-16T07:12:02.197Z,82.01
2023-09-16T07:13:04.362Z,80.68
2023-09-16T07:14:06.369Z,80.50
2023-09-16T07:15:08.811Z,81.64
2023-09-16T07:16:12.716Z,82.08
2023-09-16T07:17:14.818Z,82.08
2023-09-16T07:18:16.807Z,81.67
2023-09-16T07:19:18.883Z,81.22
2023-09-16T07:20:20.899Z,81.60
2023-09-16T07:21:22.936Z,82.78
2023-09-16T07:22:26.631Z,83.42
2023-09-16T07:23:28.676Z,83.25
2023-09-16T07:24:30.678Z,81.56
2023-09-16T07:25:32.690Z,81.15
2023-09-16T07:26:34.686Z,81.99
2023-09-16T07:27:36.684Z,82.50
2023-09-16T07:28:38.702Z,81.88
2023-09-16T07:29:40.712Z,81.40
2023-09-16T07:30:42.732Z,82.18
2023-09-16T07:31:44.835Z,82.37
2023-09-16T07:32:47.031Z,79.26
2023-09-16T07:33:49.273Z,80.01
2023-09-16T07:34:51.295Z,79.75
2023-09-16T07:35:54.170Z,78.98
2023-09-16T07:36:57.747Z,77.69
2023-09-16T07:37:59.802Z,78.17
2023-09-16T07:39:01.808Z,77.80
2023-09-16T07:40:04.040Z,76.59
2023-09-16T07:41:06.088Z,77.08
2023-09-16T07:42:08.059Z,76.50
2023-09-16T07:43:12.102Z,76.81
2023-09-16T07:44:14.170Z,79.30
2023-09-16T07:45:16.389Z,76.56
2023-09-16T07:46:18.432Z,76.87
2023-09-16T07:47:20.502Z,75.54
2023-09-16T07:48:22.512Z,76.05
2023-09-16T07:49:24.520Z,76.28
2023-09-16T07:50:26.542Z,76.30
2023-09-16T07:51:28.522Z,75.70
2023-09-16T07:52:31.192Z,74.25
2023-09-16T07:53:33.200Z,78.45
2023-09-16T07:54:35.268Z,77.98
2023-09-16T07:55:37.290Z,78.46
2023-09-16T07:56:39.264Z,76.93
2023-09-16T07:57:41.359Z,76.96
2023-09-16T07:58:43.446Z,75.32
2023-09-16T07:59:45.451Z,79.02
2023-09-16T08:00:47.543Z,77.13
2023-09-16T08:01:49.729Z,79.18
2023-09-16T08:02:51.919Z,80.34
2023-09-16T08:03:54.161Z,80.49
2023-09-16T08:04:56.429Z,80.65
2023-09-16T08:05:59.149Z,80.24
2023-09-16T08:07:01.167Z,80.26
2023-09-16T08:08:03.815Z,80.09
2023-09-16T08:09:05.834Z,79.53
2023-09-16T08:10:08.225Z,78.65
2023-09-16T08:11:10.327Z,76.76
2023-09-16T08:12:12.419Z,73.68
2023-09-16T08:13:14.472Z,74.78
2023-09-16T08:14:16.483Z,78.41
2023-09-16T08:15:18.469Z,77.97
2023-09-16T08:16:20.541Z,76.67
2023-09-16T08:17:22.532Z,76.34
2023-09-16T08:18:24.527Z,75.90
2023-09-16T08:19:26.581Z,78.09
2023-09-16T08:20:30.098Z,74.87
2023-09-16T08:21:32.146Z,75.92
2023-09-16T08:22:34.180Z,73.94
2023-09-16T08:23:36.244Z,73.72
2023-09-16T08:24:38.218Z,73.74
2023-09-16T08:25:40.223Z,74.52
2023-09-16T08:26:42.259Z,72.92
2023-09-16T08:27:44.277Z,73.11
2023-09-16T08:28:46.330Z,72.47
2023-09-16T08:29:50.771Z,71.44
2023-09-16T08:30:52.872Z,72.74
2023-09-16T08:31:54.986Z,72.26
2023-09-16T08:32:57.154Z,73.10
2023-09-16T08:34:02.037Z,75.47
2023-09-16T08:35:04.114Z,75.97
2023-09-16T08:36:06.208Z,75.44
2023-09-16T08:37:09.814Z,74.13
2023-09-16T08:38:12.056Z,72.96
2023-09-16T08:39:14.085Z,72.77
2023-09-16T08:40:16.702Z,74.29
2023-09-16T08:41:22.065Z,72.80
2023-09-16T08:42:52.291Z,71.50
2023-09-16T08:43:54.963Z,73.75
2023-09-16T08:44:57.420Z,73.23
2023-09-16T08:46:03.477Z,74.32
2023-09-16T08:47:11.576Z,77.14
2023-09-16T08:48:15.956Z,77.58
2023-09-16T08:49:18.238Z,78.17
2023-09-16T08:50:22.488Z,76.98
2023-09-16T08:51:24.477Z,74.94
2023-09-16T08:52:26.650Z,74.57
2023-09-16T08:53:29.773Z,76.56
2023-09-16T08:54:31.785Z,77.16
2023-09-16T08:55:36.283Z,76.41
2023-09-16T08:56:38.299Z,75.40
2023-09-16T08:57:56.020Z,75.77
2023-09-16T08:58:58.043Z,76.23
2023-09-16T09:00:00.077Z,75.56
2023-09-16T09:01:04.007Z,76.25
2023-09-16T09:02:06.309Z,74.19
2023-09-16T09:03:08.384Z,72.21
2023-09-16T09:04:10.843Z,73.16
2023-09-16T09:05:13.005Z,74.11
2023-09-16T09:06:23.346Z,74.31
2023-09-16T09:07:33.618Z,75.17
2023-09-16T09:08:35.672Z,76.41
2023-09-16T09:09:37.681Z,72.13
2023-09-16T09:10:41.005Z,72.84
2023-09-16T09:11:44.621Z,73.36
2023-09-16T09:12:48.163Z,71.21
2023-09-16T09:13:50.265Z,70.13
2023-09-16T09:14:52.240Z,70.85
2023-09-16T09:15:57.848Z,71.39
2023-09-16T09:17:01.715Z,70.34
2023-09-16T09:18:03.999Z,69.02
2023-09-16T09:19:06.072Z,67.48
2023-09-16T09:20:21.397Z,67.76
2023-09-16T09:21:23.380Z,69.21
2023-09-16T09:22:25.403Z,67.79
2023-09-16T09:23:27.411Z,67.41
2023-09-16T09:24:29.499Z,66.80
2023-09-16T09:25:34.035Z,65.91
2023-09-16T09:26:36.063Z,64.98
2023-09-16T09:27:38.038Z,64.46
2023-09-16T09:28:39.999Z,64.22
2023-09-16T09:29:42.056Z,64.36
2023-09-16T09:30:44.146Z,65.03
2023-09-16T09:31:46.820Z,66.36
2023-09-16T09:32:48.912Z,66.83
2023-09-16T09:33:51.254Z,66.43
2023-09-16T09:34:53.232Z,64.71
2023-09-16T09:36:13.873Z,65.18
2023-09-16T09:37:16.782Z,63.39
2023-09-16T09:38:19.211Z,64.00
2023-09-16T09:39:21.228Z,62.65
2023-09-16T09:40:23.235Z,65.07
2023-09-16T09:41:25.272Z,64.14
2023-09-16T09:42:27.276Z,63.68
2023-09-16T09:43:32.682Z,64.32
2023-09-16T09:44:35.724Z,65.05
2023-09-16T09:45:38.995Z,65.77
2023-09-16T09:46:41.181Z,67.58
2023-09-16T09:47:43.375Z,66.72
2023-09-16T09:48:45.541Z,65.13
2023-09-16T09:49:48.810Z,65.80
2023-09-16T09:50:51.031Z,65.11
2023-09-16T09:51:53.137Z,62.13
2023-09-16T09:52:55.828Z,61.66
2023-09-16T09:53:57.868Z,61.98
2023-09-16T09:55:01.753Z,61.73
2023-09-16T09:56:04.880Z,61.55
2023-09-16T09:57:06.996Z,61.83
2023-09-16T09:58:09.049Z,61.50
2023-09-16T09:59:11.166Z,61.28
2023-09-16T10:00:17.700Z,62.77
2023-09-16T10:01:19.784Z,62.49
2023-09-16T10:02:27.774Z,62.76
2023-09-16T10:03:29.991Z,60.89
2023-09-16T10:04:32.136Z,61.19
2023-09-16T10:05:36.339Z,61.92
2023-09-16T10:06:38.335Z,59.62
2023-09-16T10:07:42.977Z,59.87
2023-09-16T10:08:45.057Z,61.02
2023-09-16T10:09:47.131Z,60.53
2023-09-16T10:10:49.444Z,57.84
2023-09-16T10:11:52.241Z,60.15
2023-09-16T10:12:57.558Z,62.12
2023-09-16T10:14:00.752Z,60.11
2023-09-16T10:15:05.791Z,58.79
2023-09-16T10:16:07.838Z,59.55
2023-09-16T10:17:11.588Z,58.32
2023-09-16T10:18:14.827Z,56.69
2023-09-16T10:19:16.886Z,56.89
2023-09-16T10:20:19.007Z,58.55
2023-09-16T10:21:20.998Z,57.62
2023-09-16T10:22:23.118Z,55.56
2023-09-16T10:23:25.220Z,56.80
2023-09-16T10:24:27.197Z,55.97
2023-09-16T10:25:31.521Z,54.01
2023-09-16T10:26:35.934Z,55.45
2023-09-16T10:27:45.992Z,55.21
2023-09-16T10:28:50.154Z,54.65
2023-09-16T10:29:52.367Z,54.27
2023-09-16T10:30:54.409Z,55.60
2023-09-16T10:31:56.441Z,54.93
2023-09-16T10:33:16.107Z,54.37
2023-09-16T10:34:18.191Z,53.08
2023-09-16T10:35:21.003Z,53.50
2023-09-16T10:36:23.128Z,52.79
2023-09-16T10:37:25.214Z,53.91
2023-09-16T10:38:27.325Z,52.67
2023-09-16T10:39:29.320Z,52.53
2023-09-16T10:40:31.577Z,51.64
2023-09-16T10:41:34.552Z,52.97
2023-09-16T10:42:36.576Z,51.94
2023-09-16T10:43:38.577Z,50.42
2023-09-16T10:44:41.176Z,50.64
2023-09-16T10:45:43.214Z,50.15
2023-09-16T10:46:45.562Z,50.94
2023-09-16T10:47:47.996Z,50.36
2023-09-16T10:48:53.239Z,49.67
2023-09-16T10:49:55.641Z,49.96
2023-09-16T10:50:59.062Z,50.25
2023-09-16T10:52:03.959Z,51.39
2023-09-16T10:53:37.858Z,49.82
2023-09-16T10:54:45.230Z,49.47
2023-09-16T10:56:26.579Z,48.40
2023-09-16T10:57:34.919Z,47.76
2023-09-16T10:58:50.088Z,47.02
2023-09-16T10:59:53.051Z,46.94
2023-09-16T11:00:56.110Z,46.83
2023-09-16T11:02:00.989Z,45.50
2023-09-16T11:03:03.098Z,45.27
2023-09-16T11:04:10.962Z,45.04
2023-09-16T11:05:13.026Z,43.69
2023-09-16T11:06:15.007Z,43.86
2023-09-16T11:07:16.997Z,42.26
2023-09-16T11:08:19.008Z,40.33
2023-09-16T11:09:25.019Z,41.04
2023-09-16T11:10:27.024Z,39.80
2023-09-16T11:11:29.016Z,38.57
2023-09-16T11:12:31.103Z,36.08
2023-09-16T11:13:33.115Z,36.58
2023-09-16T11:14:35.123Z,34.44
2023-09-16T11:15:37.307Z,34.07
2023-09-16T11:16:46.179Z,35.08
2023-09-16T11:17:49.049Z,34.25
2023-09-16T11:18:52.446Z,32.96
2023-09-16T11:19:55.077Z,32.17
2023-09-16T11:20:57.054Z,32.64
2023-09-16T11:21:59.555Z,31.64
2023-09-16T11:23:08.044Z,31.99
2023-09-16T11:24:10.757Z,31.91
2023-09-16T11:25:12.903Z,32.39
2023-09-16T11:26:24.060Z,32.16
2023-09-16T11:27:26.401Z,32.22
2023-09-16T11:28:29.539Z,33.14
2023-09-16T11:29:34.727Z,34.75
2023-09-16T11:30:37.236Z,34.87
2023-09-16T11:31:39.481Z,36.54
2023-09-16T11:33:02.467Z,35.73
2023-09-16T11:34:04.489Z,36.67
2023-09-16T11:35:06.659Z,36.41
2023-09-16T11:36:08.914Z,37.89
2023-09-16T11:37:10.969Z,37.66
2023-09-16T11:38:13.168Z,38.56
2023-09-16T11:39:19.584Z,39.11
2023-09-16T11:40:28.241Z,39.42
2023-09-16T11:41:30.248Z,39.55
2023-09-16T11:42:32.219Z,39.33
2023-09-16T11:43:34.244Z,39.12
2023-09-16T11:44:37.035Z,39.26
2023-09-16T11:45:39.079Z,41.12
2023-09-16T11:46:41.452Z,41.95
2023-09-16T11:47:43.510Z,42.24
2023-09-16T11:48:49.887Z,42.37
2023-09-16T11:49:52.125Z,41.39
2023-09-16T11:50:54.132Z,42.32
2023-09-16T11:51:56.347Z,43.32
2023-09-16T11:52:58.412Z,44.07
2023-09-16T11:54:00.446Z,45.54
2023-09-16T11:55:02.676Z,45.97
2023-09-16T11:56:05.400Z,45.18
2023-09-16T11:57:07.454Z,44.96
2023-09-16T11:58:09.429Z,46.69
2023-09-16T11:59:11.823Z,47.18
2023-09-16T12:00:14.202Z,47.14
2023-09-16T12:01:23.531Z,46.40
2023-09-16T12:02:25.648Z,47.71
2023-09-16T12:03:27.720Z,47.94
2023-09-16T12:04:29.768Z,48.80
2023-09-16T12:05:31.801Z,47.32
2023-09-16T12:06:36.286Z,49.60
2023-09-16T12:07:38.517Z,50.49
2023-09-16T12:08:41.115Z,51.28
2023-09-16T12:09:43.139Z,52.31
2023-09-16T12:10:45.124Z,53.15
2023-09-16T12:11:51.625Z,50.83
2023-09-16T12:12:53.701Z,49.99
2023-09-16T12:13:56.249Z,49.86
2023-09-16T12:15:00.614Z,53.03
2023-09-16T12:16:02.689Z,54.48
2023-09-16T12:17:04.819Z,51.30
2023-09-16T12:18:07.883Z,52.68
2023-09-16T12:19:12.741Z,50.98
2023-09-16T12:20:14.850Z,51.43
2023-09-16T12:21:16.827Z,52.21
2023-09-16T12:22:19.821Z,53.10
2023-09-16T12:23:21.863Z,54.46
2023-09-16T12:24:25.489Z,55.54
2023-09-16T12:25:28.249Z,56.25
2023-09-16T12:26:30.352Z,52.42
2023-09-16T12:27:32.324Z,54.67
2023-09-16T12:28:34.355Z,54.33
2023-09-16T12:29:36.396Z,54.03
2023-09-16T12:30:46.617Z,55.28
2023-09-16T12:31:48.874Z,56.66
2023-09-16T12:32:52.329Z,52.80
2023-09-16T12:33:57.087Z,53.91
2023-09-16T12:35:10.086Z,52.57
2023-09-16T12:36:28.599Z,54.07
2023-09-16T12:37:30.825Z,54.00
2023-09-16T12:38:35.922Z,52.08
2023-09-16T12:39:37.912Z,54.14
2023-09-16T12:40:39.936Z,54.55
2023-09-16T12:41:44.536Z,54.67
2023-09-16T12:42:46.531Z,54.78
2023-09-16T12:43:48.499Z,54.14
2023-09-16T12:44:50.484Z,51.78
2023-09-16T12:45:52.547Z,52.95
2023-09-16T12:46:54.611Z,52.92
2023-09-16T12:47:56.980Z,52.62
2023-09-16T12:48:59.110Z,52.01
2023-09-16T12:50:01.119Z,53.42
2023-09-16T12:51:03.124Z,51.98
2023-09-16T12:52:05.331Z,51.59
2023-09-16T12:53:07.346Z,51.21
2023-09-16T12:54:09.365Z,50.79
2023-09-16T12:55:12.736Z,50.13
2023-09-16T12:56:20.580Z,51.77
2023-09-16T12:57:24.001Z,50.29
2023-09-16T12:58:26.095Z,51.13
2023-09-16T12:59:28.198Z,51.91
2023-09-16T13:00:30.178Z,52.96
2023-09-16T13:01:32.378Z,53.21
2023-09-16T13:02:37.830Z,52.85
2023-09-16T13:03:39.986Z,51.58
2023-09-16T13:04:42.029Z,49.69
2023-09-16T13:05:52.017Z,49.92
2023-09-16T13:06:54.458Z,51.10
2023-09-16T13:07:58.284Z,48.94
2023-09-16T13:09:00.610Z,49.24
2023-09-16T13:10:02.649Z,50.02
2023-09-16T13:11:04.698Z,50.69
2023-09-16T13:12:06.699Z,49.49
2023-09-16T13:13:08.699Z,48.99
2023-09-16T13:14:13.146Z,49.17
2023-09-16T13:15:21.798Z,48.79
2023-09-16T13:16:26.661Z,49.73
2023-09-16T13:17:28.752Z,48.98
2023-09-16T13:18:30.812Z,50.13
2023-09-16T13:19:32.814Z,50.25
2023-09-16T13:20:37.751Z,52.86
2023-09-16T13:21:39.867Z,50.88
2023-09-16T13:22:45.708Z,51.54
2023-09-16T13:23:51.669Z,51.13
2023-09-16T13:24:53.681Z,52.49
2023-09-16T13:25:57.213Z,52.00
2023-09-16T13:26:59.714Z,51.81
2023-09-16T13:28:15.778Z,52.08
2023-09-16T13:29:17.791Z,50.70
2023-09-16T13:30:23.823Z,49.47
2023-09-16T13:31:26.654Z,49.99
2023-09-16T13:32:28.762Z,50.95